Cobourg, Ontario

10:02 AM EDT on 四月 28, 2017 (GMT -0400)
Dalewood Golf Club Turf Department | | Change Station

高度 257 ft 44.00 °N, 78.26 °W | Updated 2 minutes ago

だいたい曇
だいたい曇
51.7 °F
体感気温 51.7 °F
6.0
風 変数 風 から 南西
Gusts 6.0 Mph

今日
高い -- | 低 -- °F
--% 降水確率
昨日
高い -- | 低 -- °F
Precip. -- インチ
気圧 29.98 インチ
視程 9.0 マイル
曇 4100 ft
露点温度 46 °F
湿度 80%
降水 0.00 インチ
積雪深 利用不可。
6:08 AM 8:12 PM
三日月, 6% visible
METAR CYPQ 281300Z AUTO 25006KT 210V270 9SM OVC041 11/05 A2997 RMK SLP152
気圧 29.98 インチ
視程 9.0 マイル
曇 4100 ft
露点温度 46 °F
湿度 80%
降水 0.00 インチ
積雪深 利用不可。
6:08 AM 8:12 PM
三日月, 6% visible
METAR CYPQ 281300Z AUTO 25006KT 210V270 9SM OVC041 11/05 A2997 RMK SLP152

Get Severe Weather Alerts

Thanks for signing up!

Be on the lookout for a verification email in your inbox.

You'll start receiving the daily forecast at 8 AM.

×

10-Day Weather Forecast

Almanac

天文

Apr. 28, 2017 入り
実時間
常用薄明
航海薄明
天文薄明
可視光の長さ
可照時間
Tomorrow will be .
, % of the Moon is Illuminated

今日の極値

Country Highs Country Lows

Community

WunderBlog® & News

Nearby

空気品質

  空気品質 大気質指数 汚染物質
Not available.

積雪深

Station Depth 高度

地震活動

Distance Mag. Time & Date
Minimum magnitude displayed is 2.5.

沿岸の水温

地名 気温

Stations

最寄りの気象観測所

観測所位置 温度 体感気温(寒さ) 露点温度 湿度 Precip. 高度 更新日時 タイプする
                   

Watches & Warnings

There are currently no watches in effect.